sensor_id;sensor_type;location;lat;lon;timestamp;P1;durP1;ratioP1;P2;durP2;ratioP2
31906;SDS011;18455;50.858;13.662;2022-08-03T00:00:31;3.50;;;3.20;;
31906;SDS011;18455;50.858;13.662;2022-08-03T00:05:31;3.17;;;2.88;;
31906;SDS011;18455;50.858;13.662;2022-08-03T00:10:32;4.28;;;3.20;;
31906;SDS011;18455;50.858;13.662;2022-08-03T00:15:33;3.45;;;3.17;;
31906;SDS011;18455;50.858;13.662;2022-08-03T00:20:33;3.50;;;3.17;;
31906;SDS011;18455;50.858;13.662;2022-08-03T00:25:34;3.50;;;3.20;;
31906;SDS011;18455;50.858;13.662;2022-08-03T00:30:35;4.18;;;3.38;;
31906;SDS011;18455;50.858;13.662;2022-08-03T00:35:35;3.95;;;3.10;;
31906;SDS011;18455;50.858;13.662;2022-08-03T00:40:36;4.88;;;3.20;;
31906;SDS011;18455;50.858;13.662;2022-08-03T00:45:37;3.28;;;2.95;;
31906;SDS011;18455;50.858;13.662;2022-08-03T00:50:39;3.75;;;3.38;;
31906;SDS011;18455;50.858;13.662;2022-08-03T00:55:41;5.18;;;3.42;;
31906;SDS011;18455;50.858;13.662;2022-08-03T01:00:42;4.55;;;3.30;;
31906;SDS011;18455;50.858;13.662;2022-08-03T01:05:51;3.90;;;3.50;;
31906;SDS011;18455;50.858;13.662;2022-08-03T01:16:32;3.88;;;3.50;;
31906;SDS011;18455;50.858;13.662;2022-08-03T01:27:20;4.70;;;3.60;;
31906;SDS011;18455;50.858;13.662;2022-08-03T01:32:33;4.22;;;3.38;;
31906;SDS011;18455;50.858;13.662;2022-08-03T01:37:54;3.65;;;3.35;;
31906;SDS011;18455;50.858;13.662;2022-08-03T01:42:57;5.15;;;3.83;;
31906;SDS011;18455;50.858;13.662;2022-08-03T01:47:59;3.80;;;3.33;;
31906;SDS011;18455;50.858;13.662;2022-08-03T01:53:00;3.22;;;2.92;;
31906;SDS011;18455;50.858;13.662;2022-08-03T01:58:01;4.18;;;3.45;;
31906;SDS011;18455;50.858;13.662;2022-08-03T02:03:06;3.67;;;3.38;;
31906;SDS011;18455;50.858;13.662;2022-08-03T02:08:07;4.28;;;3.95;;
31906;SDS011;18455;50.858;13.662;2022-08-03T02:13:08;5.45;;;3.78;;
31906;SDS011;18455;50.858;13.662;2022-08-03T02:18:08;4.43;;;3.38;;
31906;SDS011;18455;50.858;13.662;2022-08-03T02:23:09;4.60;;;3.47;;
31906;SDS011;18455;50.858;13.662;2022-08-03T02:28:10;5.00;;;3.17;;
31906;SDS011;18455;50.858;13.662;2022-08-03T02:33:18;3.58;;;3.28;;
31906;SDS011;18455;50.858;13.662;2022-08-03T02:38:22;3.28;;;2.97;;
31906;SDS011;18455;50.858;13.662;2022-08-03T02:43:26;3.92;;;3.53;;
31906;SDS011;18455;50.858;13.662;2022-08-03T02:48:28;4.22;;;3.45;;
31906;SDS011;18455;50.858;13.662;2022-08-03T02:53:29;4.05;;;3.67;;
31906;SDS011;18455;50.858;13.662;2022-08-03T02:58:30;4.22;;;3.53;;
31906;SDS011;18455;50.858;13.662;2022-08-03T03:03:31;6.00;;;3.20;;
31906;SDS011;18455;50.858;13.662;2022-08-03T03:08:32;4.03;;;3.40;;
31906;SDS011;18455;50.858;13.662;2022-08-03T03:13:32;3.22;;;2.92;;
31906;SDS011;18455;50.858;13.662;2022-08-03T03:18:33;4.07;;;3.60;;
31906;SDS011;18455;50.858;13.662;2022-08-03T03:23:34;3.00;;;2.80;;
31906;SDS011;18455;50.858;13.662;2022-08-03T03:28:35;3.42;;;3.08;;
31906;SDS011;18455;50.858;13.662;2022-08-03T03:33:36;3.78;;;3.03;;
31906;SDS011;18455;50.858;13.662;2022-08-03T03:38:37;3.97;;;3.40;;
31906;SDS011;18455;50.858;13.662;2022-08-03T03:43:37;2.88;;;2.63;;
31906;SDS011;18455;50.858;13.662;2022-08-03T03:48:38;3.65;;;3.30;;
31906;SDS011;18455;50.858;13.662;2022-08-03T03:53:38;5.32;;;3.05;;
31906;SDS011;18455;50.858;13.662;2022-08-03T03:58:38;4.45;;;3.13;;
31906;SDS011;18455;50.858;13.662;2022-08-03T04:03:39;3.45;;;2.90;;
31906;SDS011;18455;50.858;13.662;2022-08-03T04:08:39;3.28;;;2.97;;
31906;SDS011;18455;50.858;13.662;2022-08-03T04:14:15;3.85;;;3.00;;
31906;SDS011;18455;50.858;13.662;2022-08-03T04:19:21;4.22;;;3.47;;
31906;SDS011;18455;50.858;13.662;2022-08-03T04:24:26;4.38;;;2.92;;
31906;SDS011;18455;50.858;13.662;2022-08-03T04:29:34;3.55;;;3.17;;
31906;SDS011;18455;50.858;13.662;2022-08-03T04:34:36;3.58;;;3.28;;
31906;SDS011;18455;50.858;13.662;2022-08-03T04:39:37;3.30;;;3.00;;
31906;SDS011;18455;50.858;13.662;2022-08-03T04:44:39;4.15;;;2.80;;
31906;SDS011;18455;50.858;13.662;2022-08-03T04:49:41;6.57;;;2.83;;
31906;SDS011;18455;50.858;13.662;2022-08-03T04:54:42;3.63;;;2.80;;
31906;SDS011;18455;50.858;13.662;2022-08-03T04:59:43;3.20;;;2.80;;
31906;SDS011;18455;50.858;13.662;2022-08-03T05:04:43;3.05;;;2.75;;
31906;SDS011;18455;50.858;13.662;2022-08-03T05:09:45;2.92;;;2.60;;
31906;SDS011;18455;50.858;13.662;2022-08-03T05:14:45;5.75;;;2.63;;
31906;SDS011;18455;50.858;13.662;2022-08-03T05:19:46;3.90;;;2.63;;
31906;SDS011;18455;50.858;13.662;2022-08-03T05:24:46;3.13;;;2.72;;
31906;SDS011;18455;50.858;13.662;2022-08-03T05:29:47;3.15;;;2.60;;
31906;SDS011;18455;50.858;13.662;2022-08-03T05:34:48;2.83;;;2.60;;
31906;SDS011;18455;50.858;13.662;2022-08-03T05:39:48;2.85;;;2.35;;
31906;SDS011;18455;50.858;13.662;2022-08-03T05:44:49;3.00;;;2.42;;
31906;SDS011;18455;50.858;13.662;2022-08-03T05:49:49;2.83;;;2.53;;
31906;SDS011;18455;50.858;13.662;2022-08-03T05:54:50;3.70;;;2.53;;
31906;SDS011;18455;50.858;13.662;2022-08-03T05:59:50;3.05;;;2.40;;
31906;SDS011;18455;50.858;13.662;2022-08-03T06:04:51;2.72;;;2.40;;
31906;SDS011;18455;50.858;13.662;2022-08-03T06:09:51;4.78;;;2.50;;
31906;SDS011;18455;50.858;13.662;2022-08-03T06:14:51;2.40;;;2.13;;
31906;SDS011;18455;50.858;13.662;2022-08-03T06:19:52;2.70;;;2.20;;
31906;SDS011;18455;50.858;13.662;2022-08-03T06:24:52;2.75;;;2.25;;
31906;SDS011;18455;50.858;13.662;2022-08-03T06:29:53;2.90;;;1.85;;
31906;SDS011;18455;50.858;13.662;2022-08-03T06:34:53;2.53;;;2.20;;
31906;SDS011;18455;50.858;13.662;2022-08-03T06:39:53;4.10;;;2.03;;
31906;SDS011;18455;50.858;13.662;2022-08-03T06:44:54;3.35;;;2.05;;
31906;SDS011;18455;50.858;13.662;2022-08-03T06:49:54;2.83;;;1.83;;
31906;SDS011;18455;50.858;13.662;2022-08-03T06:54:56;4.25;;;2.75;;
31906;SDS011;18455;50.858;13.662;2022-08-03T06:59:57;2.88;;;1.80;;
31906;SDS011;18455;50.858;13.662;2022-08-03T07:05:00;2.20;;;1.70;;
31906;SDS011;18455;50.858;13.662;2022-08-03T07:10:02;2.85;;;2.15;;
31906;SDS011;18455;50.858;13.662;2022-08-03T07:15:03;2.10;;;1.70;;
31906;SDS011;18455;50.858;13.662;2022-08-03T07:20:05;2.25;;;1.98;;
31906;SDS011;18455;50.858;13.662;2022-08-03T07:25:06;4.60;;;1.60;;
31906;SDS011;18455;50.858;13.662;2022-08-03T07:30:07;2.60;;;2.00;;
31906;SDS011;18455;50.858;13.662;2022-08-03T07:35:08;4.60;;;1.77;;
31906;SDS011;18455;50.858;13.662;2022-08-03T07:40:09;4.55;;;1.83;;
31906;SDS011;18455;50.858;13.662;2022-08-03T07:45:10;2.05;;;1.50;;
31906;SDS011;18455;50.858;13.662;2022-08-03T07:50:10;1.50;;;1.40;;
31906;SDS011;18455;50.858;13.662;2022-08-03T07:55:11;2.42;;;1.50;;
31906;SDS011;18455;50.858;13.662;2022-08-03T08:00:15;2.57;;;1.47;;
31906;SDS011;18455;50.858;13.662;2022-08-03T08:05:16;3.53;;;1.30;;
31906;SDS011;18455;50.858;13.662;2022-08-03T08:10:17;1.90;;;1.70;;
31906;SDS011;18455;50.858;13.662;2022-08-03T08:15:18;1.70;;;1.60;;
31906;SDS011;18455;50.858;13.662;2022-08-03T08:20:19;1.63;;;1.52;;
31906;SDS011;18455;50.858;13.662;2022-08-03T08:25:21;4.28;;;1.80;;
31906;SDS011;18455;50.858;13.662;2022-08-03T08:30:22;4.50;;;1.70;;
31906;SDS011;18455;50.858;13.662;2022-08-03T08:35:23;1.73;;;1.60;;
31906;SDS011;18455;50.858;13.662;2022-08-03T08:40:23;5.63;;;1.77;;
31906;SDS011;18455;50.858;13.662;2022-08-03T08:45:24;1.37;;;1.27;;
31906;SDS011;18455;50.858;13.662;2022-08-03T08:50:24;3.63;;;1.88;;
31906;SDS011;18455;50.858;13.662;2022-08-03T08:55:25;4.70;;;1.42;;
31906;SDS011;18455;50.858;13.662;2022-08-03T09:00:26;1.60;;;1.48;;
31906;SDS011;18455;50.858;13.662;2022-08-03T09:05:27;2.50;;;1.40;;
31906;SDS011;18455;50.858;13.662;2022-08-03T09:10:30;5.00;;;1.40;;
31906;SDS011;18455;50.858;13.662;2022-08-03T09:15:31;1.50;;;1.40;;
31906;SDS011;18455;50.858;13.662;2022-08-03T09:20:32;4.05;;;1.60;;
31906;SDS011;18455;50.858;13.662;2022-08-03T09:25:35;1.55;;;1.45;;
31906;SDS011;18455;50.858;13.662;2022-08-03T09:30:42;1.38;;;1.23;;
31906;SDS011;18455;50.858;13.662;2022-08-03T09:35:46;1.48;;;1.33;;
31906;SDS011;18455;50.858;13.662;2022-08-03T09:40:48;1.50;;;1.40;;
31906;SDS011;18455;50.858;13.662;2022-08-03T09:45:49;1.73;;;1.40;;
31906;SDS011;18455;50.858;13.662;2022-08-03T09:50:55;1.50;;;1.40;;
31906;SDS011;18455;50.858;13.662;2022-08-03T09:55:58;1.50;;;1.38;;
31906;SDS011;18455;50.858;13.662;2022-08-03T10:01:03;1.70;;;1.35;;
31906;SDS011;18455;50.858;13.662;2022-08-03T10:06:14;1.25;;;1.15;;
31906;SDS011;18455;50.858;13.662;2022-08-03T10:11:28;2.13;;;1.45;;
31906;SDS011;18455;50.858;13.662;2022-08-03T10:16:36;1.70;;;1.40;;
31906;SDS011;18455;50.858;13.662;2022-08-03T10:21:38;2.25;;;1.30;;
31906;SDS011;18455;50.858;13.662;2022-08-03T10:26:40;1.45;;;1.35;;
31906;SDS011;18455;50.858;13.662;2022-08-03T10:31:43;1.55;;;1.17;;
31906;SDS011;18455;50.858;13.662;2022-08-03T10:36:44;1.50;;;1.30;;
31906;SDS011;18455;50.858;13.662;2022-08-03T10:41:45;4.20;;;1.40;;
31906;SDS011;18455;50.858;13.662;2022-08-03T10:46:47;5.43;;;1.42;;
31906;SDS011;18455;50.858;13.662;2022-08-03T10:51:49;1.00;;;1.00;;
31906;SDS011;18455;50.858;13.662;2022-08-03T10:56:49;1.00;;;0.90;;
31906;SDS011;18455;50.858;13.662;2022-08-03T11:02:08;3.53;;;1.20;;
31906;SDS011;18455;50.858;13.662;2022-08-03T11:17:22;2.15;;;1.30;;
31906;SDS011;18455;50.858;13.662;2022-08-03T11:22:23;2.38;;;1.40;;
31906;SDS011;18455;50.858;13.662;2022-08-03T11:27:24;1.20;;;1.10;;
31906;SDS011;18455;50.858;13.662;2022-08-03T11:42:57;1.98;;;1.10;;
31906;SDS011;18455;50.858;13.662;2022-08-03T11:47:58;2.07;;;1.10;;
31906;SDS011;18455;50.858;13.662;2022-08-03T11:53:02;1.67;;;1.50;;
31906;SDS011;18455;50.858;13.662;2022-08-03T11:58:04;1.23;;;1.13;;
31906;SDS011;18455;50.858;13.662;2022-08-03T12:03:06;1.40;;;1.17;;
31906;SDS011;18455;50.858;13.662;2022-08-03T12:08:08;0.95;;;0.93;;
31906;SDS011;18455;50.858;13.662;2022-08-03T12:13:09;2.38;;;1.58;;
31906;SDS011;18455;50.858;13.662;2022-08-03T12:18:13;3.53;;;1.50;;
31906;SDS011;18455;50.858;13.662;2022-08-03T12:23:15;6.30;;;1.48;;
31906;SDS011;18455;50.858;13.662;2022-08-03T12:28:17;3.28;;;1.42;;
31906;SDS011;18455;50.858;13.662;2022-08-03T12:33:19;2.05;;;1.48;;
31906;SDS011;18455;50.858;13.662;2022-08-03T12:38:24;1.35;;;1.25;;
31906;SDS011;18455;50.858;13.662;2022-08-03T12:43:24;1.30;;;1.20;;
31906;SDS011;18455;50.858;13.662;2022-08-03T12:48:24;1.55;;;1.45;;
31906;SDS011;18455;50.858;13.662;2022-08-03T12:53:28;3.00;;;1.87;;
31906;SDS011;18455;50.858;13.662;2022-08-03T12:58:33;1.90;;;1.80;;
31906;SDS011;18455;50.858;13.662;2022-08-03T13:03:38;2.03;;;1.63;;
31906;SDS011;18455;50.858;13.662;2022-08-03T13:08:39;2.22;;;1.80;;
31906;SDS011;18455;50.858;13.662;2022-08-03T13:13:40;2.33;;;1.75;;
31906;SDS011;18455;50.858;13.662;2022-08-03T13:18:40;2.23;;;2.10;;
31906;SDS011;18455;50.858;13.662;2022-08-03T13:23:41;7.00;;;2.33;;
31906;SDS011;18455;50.858;13.662;2022-08-03T13:28:41;4.68;;;2.10;;
31906;SDS011;18455;50.858;13.662;2022-08-03T13:33:42;7.28;;;3.60;;
31906;SDS011;18455;50.858;13.662;2022-08-03T13:38:42;6.73;;;2.33;;
31906;SDS011;18455;50.858;13.662;2022-08-03T13:43:43;4.17;;;2.13;;
31906;SDS011;18455;50.858;13.662;2022-08-03T13:48:43;9.43;;;2.60;;
31906;SDS011;18455;50.858;13.662;2022-08-03T13:53:43;3.40;;;2.00;;
31906;SDS011;18455;50.858;13.662;2022-08-03T13:58:44;3.13;;;2.13;;
31906;SDS011;18455;50.858;13.662;2022-08-03T14:03:44;2.77;;;2.00;;
31906;SDS011;18455;50.858;13.662;2022-08-03T14:08:47;2.20;;;2.00;;
31906;SDS011;18455;50.858;13.662;2022-08-03T14:13:48;2.53;;;2.03;;
31906;SDS011;18455;50.858;13.662;2022-08-03T14:18:48;2.03;;;1.93;;
31906;SDS011;18455;50.858;13.662;2022-08-03T14:23:48;2.63;;;1.90;;
31906;SDS011;18455;50.858;13.662;2022-08-03T14:28:49;3.00;;;1.80;;
31906;SDS011;18455;50.858;13.662;2022-08-03T14:33:49;1.90;;;1.80;;
31906;SDS011;18455;50.858;13.662;2022-08-03T14:38:50;2.13;;;1.80;;
31906;SDS011;18455;50.858;13.662;2022-08-03T14:43:50;3.17;;;2.03;;
31906;SDS011;18455;50.858;13.662;2022-08-03T14:48:52;2.60;;;2.10;;
31906;SDS011;18455;50.858;13.662;2022-08-03T14:53:52;2.97;;;2.17;;
31906;SDS011;18455;50.858;13.662;2022-08-03T14:58:52;2.73;;;2.03;;
31906;SDS011;18455;50.858;13.662;2022-08-03T15:03:53;2.40;;;1.80;;
31906;SDS011;18455;50.858;13.662;2022-08-03T15:08:53;3.40;;;2.00;;
31906;SDS011;18455;50.858;13.662;2022-08-03T15:13:53;3.87;;;1.83;;
31906;SDS011;18455;50.858;13.662;2022-08-03T15:18:54;8.10;;;1.80;;
31906;SDS011;18455;50.858;13.662;2022-08-03T15:23:54;5.73;;;1.77;;
31906;SDS011;18455;50.858;13.662;2022-08-03T15:28:56;3.20;;;2.07;;
31906;SDS011;18455;50.858;13.662;2022-08-03T15:33:56;2.13;;;1.83;;
31906;SDS011;18455;50.858;13.662;2022-08-03T15:38:57;2.63;;;1.87;;
31906;SDS011;18455;50.858;13.662;2022-08-03T15:43:57;4.97;;;2.00;;
31906;SDS011;18455;50.858;13.662;2022-08-03T15:48:57;2.13;;;1.88;;
31906;SDS011;18455;50.858;13.662;2022-08-03T15:53:58;1.83;;;1.70;;
31906;SDS011;18455;50.858;13.662;2022-08-03T15:58:58;2.00;;;1.90;;
31906;SDS011;18455;50.858;13.662;2022-08-03T16:03:59;2.13;;;1.87;;
31906;SDS011;18455;50.858;13.662;2022-08-03T16:08:59;3.10;;;1.77;;
31906;SDS011;18455;50.858;13.662;2022-08-03T16:13:59;5.70;;;2.37;;
31906;SDS011;18455;50.858;13.662;2022-08-03T16:19:00;10.83;;;2.17;;
31906;SDS011;18455;50.858;13.662;2022-08-03T16:24:00;12.17;;;2.33;;
31906;SDS011;18455;50.858;13.662;2022-08-03T16:29:02;10.27;;;2.10;;
31906;SDS011;18455;50.858;13.662;2022-08-03T16:34:03;7.10;;;2.38;;
31906;SDS011;18455;50.858;13.662;2022-08-03T16:39:03;8.03;;;2.90;;
31906;SDS011;18455;50.858;13.662;2022-08-03T16:44:03;3.77;;;1.90;;
31906;SDS011;18455;50.858;13.662;2022-08-03T16:49:04;8.87;;;2.93;;
31906;SDS011;18455;50.858;13.662;2022-08-03T16:54:04;8.43;;;2.37;;
31906;SDS011;18455;50.858;13.662;2022-08-03T16:59:05;4.00;;;1.98;;
31906;SDS011;18455;50.858;13.662;2022-08-03T17:04:05;4.30;;;1.70;;
31906;SDS011;18455;50.858;13.662;2022-08-03T17:09:13;2.70;;;1.63;;
31906;SDS011;18455;50.858;13.662;2022-08-03T17:14:15;3.47;;;1.90;;
31906;SDS011;18455;50.858;13.662;2022-08-03T17:19:19;1.70;;;1.60;;
31906;SDS011;18455;50.858;13.662;2022-08-03T17:24:28;4.35;;;1.73;;
31906;SDS011;18455;50.858;13.662;2022-08-03T17:29:32;8.10;;;2.13;;
31906;SDS011;18455;50.858;13.662;2022-08-03T17:34:33;4.00;;;2.20;;
31906;SDS011;18455;50.858;13.662;2022-08-03T17:39:34;4.82;;;2.28;;
31906;SDS011;18455;50.858;13.662;2022-08-03T17:44:34;2.20;;;2.00;;
31906;SDS011;18455;50.858;13.662;2022-08-03T17:49:36;8.63;;;2.05;;
31906;SDS011;18455;50.858;13.662;2022-08-03T17:54:41;2.10;;;1.90;;
31906;SDS011;18455;50.858;13.662;2022-08-03T17:59:44;4.78;;;2.20;;
31906;SDS011;18455;50.858;13.662;2022-08-03T18:04:53;2.40;;;2.10;;
31906;SDS011;18455;50.858;13.662;2022-08-03T18:09:55;4.05;;;2.03;;
31906;SDS011;18455;50.858;13.662;2022-08-03T18:14:58;2.38;;;2.17;;
31906;SDS011;18455;50.858;13.662;2022-08-03T18:20:00;8.07;;;6.78;;
31906;SDS011;18455;50.858;13.662;2022-08-03T18:25:00;5.00;;;3.55;;
31906;SDS011;18455;50.858;13.662;2022-08-03T18:30:02;11.32;;;3.08;;
31906;SDS011;18455;50.858;13.662;2022-08-03T18:35:02;7.28;;;2.63;;
31906;SDS011;18455;50.858;13.662;2022-08-03T18:40:04;12.07;;;2.20;;
31906;SDS011;18455;50.858;13.662;2022-08-03T18:45:06;4.25;;;3.00;;
31906;SDS011;18455;50.858;13.662;2022-08-03T18:50:52;4.10;;;2.58;;
31906;SDS011;18455;50.858;13.662;2022-08-03T18:55:29;4.25;;;2.78;;
31906;SDS011;18455;50.858;13.662;2022-08-03T19:00:32;4.30;;;2.33;;
31906;SDS011;18455;50.858;13.662;2022-08-03T19:05:37;3.88;;;2.83;;
31906;SDS011;18455;50.858;13.662;2022-08-03T19:10:42;3.90;;;2.95;;
31906;SDS011;18455;50.858;13.662;2022-08-03T19:15:47;3.97;;;2.40;;
31906;SDS011;18455;50.858;13.662;2022-08-03T19:20:51;4.43;;;3.25;;
31906;SDS011;18455;50.858;13.662;2022-08-03T19:25:51;6.85;;;3.10;;
31906;SDS011;18455;50.858;13.662;2022-08-03T19:30:52;8.27;;;5.30;;
31906;SDS011;18455;50.858;13.662;2022-08-03T19:35:54;6.65;;;2.92;;
31906;SDS011;18455;50.858;13.662;2022-08-03T19:40:56;9.63;;;4.45;;
31906;SDS011;18455;50.858;13.662;2022-08-03T19:45:57;2.67;;;2.47;;
31906;SDS011;18455;50.858;13.662;2022-08-03T19:50:58;4.57;;;3.00;;
31906;SDS011;18455;50.858;13.662;2022-08-03T19:56:02;4.78;;;2.80;;
31906;SDS011;18455;50.858;13.662;2022-08-03T20:01:03;4.72;;;2.60;;
31906;SDS011;18455;50.858;13.662;2022-08-03T20:06:04;4.10;;;3.15;;
31906;SDS011;18455;50.858;13.662;2022-08-03T20:11:05;4.22;;;2.67;;
31906;SDS011;18455;50.858;13.662;2022-08-03T20:16:05;6.15;;;2.92;;
31906;SDS011;18455;50.858;13.662;2022-08-03T20:21:09;2.60;;;2.40;;
31906;SDS011;18455;50.858;13.662;2022-08-03T20:26:11;4.05;;;2.92;;
31906;SDS011;18455;50.858;13.662;2022-08-03T20:31:15;4.32;;;2.92;;
31906;SDS011;18455;50.858;13.662;2022-08-03T20:36:16;5.50;;;2.85;;
31906;SDS011;18455;50.858;13.662;2022-08-03T20:41:18;8.30;;;3.45;;
31906;SDS011;18455;50.858;13.662;2022-08-03T20:46:19;2.90;;;2.40;;
31906;SDS011;18455;50.858;13.662;2022-08-03T20:51:20;6.18;;;3.22;;
31906;SDS011;18455;50.858;13.662;2022-08-03T20:56:20;5.10;;;3.13;;
31906;SDS011;18455;50.858;13.662;2022-08-03T21:01:21;3.08;;;2.58;;
31906;SDS011;18455;50.858;13.662;2022-08-03T21:06:21;5.55;;;3.10;;
31906;SDS011;18455;50.858;13.662;2022-08-03T21:11:23;4.50;;;2.83;;
31906;SDS011;18455;50.858;13.662;2022-08-03T21:16:25;4.38;;;3.05;;
31906;SDS011;18455;50.858;13.662;2022-08-03T21:21:28;3.63;;;2.97;;
31906;SDS011;18455;50.858;13.662;2022-08-03T21:26:31;4.45;;;2.83;;
31906;SDS011;18455;50.858;13.662;2022-08-03T21:31:32;3.22;;;2.55;;
31906;SDS011;18455;50.858;13.662;2022-08-03T21:36:34;5.32;;;3.00;;
31906;SDS011;18455;50.858;13.662;2022-08-03T21:41:36;3.60;;;2.88;;
31906;SDS011;18455;50.858;13.662;2022-08-03T21:46:40;4.95;;;2.97;;
31906;SDS011;18455;50.858;13.662;2022-08-03T21:51:41;4.75;;;2.53;;
31906;SDS011;18455;50.858;13.662;2022-08-03T21:56:42;6.78;;;2.97;;
31906;SDS011;18455;50.858;13.662;2022-08-03T22:01:44;4.20;;;2.80;;
31906;SDS011;18455;50.858;13.662;2022-08-03T22:06:46;4.80;;;3.03;;
31906;SDS011;18455;50.858;13.662;2022-08-03T22:11:46;2.70;;;2.40;;
31906;SDS011;18455;50.858;13.662;2022-08-03T22:16:49;3.67;;;2.65;;
31906;SDS011;18455;50.858;13.662;2022-08-03T22:21:50;3.67;;;2.80;;
31906;SDS011;18455;50.858;13.662;2022-08-03T22:26:50;4.97;;;2.80;;
31906;SDS011;18455;50.858;13.662;2022-08-03T22:32:09;4.57;;;3.00;;
31906;SDS011;18455;50.858;13.662;2022-08-03T22:37:09;6.47;;;2.70;;
31906;SDS011;18455;50.858;13.662;2022-08-03T22:42:10;4.43;;;3.00;;
31906;SDS011;18455;50.858;13.662;2022-08-03T22:47:10;4.38;;;2.90;;
31906;SDS011;18455;50.858;13.662;2022-08-03T22:52:12;2.78;;;2.50;;
31906;SDS011;18455;50.858;13.662;2022-08-03T22:57:13;3.72;;;2.60;;
31906;SDS011;18455;50.858;13.662;2022-08-03T23:02:15;6.13;;;3.00;;
31906;SDS011;18455;50.858;13.662;2022-08-03T23:07:19;4.53;;;2.80;;
31906;SDS011;18455;50.858;13.662;2022-08-03T23:12:21;5.53;;;2.67;;
31906;SDS011;18455;50.858;13.662;2022-08-03T23:17:22;4.47;;;2.40;;
31906;SDS011;18455;50.858;13.662;2022-08-03T23:22:23;4.20;;;3.20;;
31906;SDS011;18455;50.858;13.662;2022-08-03T23:27:24;3.53;;;2.35;;
31906;SDS011;18455;50.858;13.662;2022-08-03T23:32:26;4.95;;;2.70;;
31906;SDS011;18455;50.858;13.662;2022-08-03T23:37:28;4.15;;;2.80;;
31906;SDS011;18455;50.858;13.662;2022-08-03T23:42:29;4.72;;;2.72;;
31906;SDS011;18455;50.858;13.662;2022-08-03T23:47:29;4.43;;;2.70;;
